createdAt,value
2023-02-22T00:00:43.526Z,35.78
2023-02-22T00:03:15.736Z,39.00
2023-02-22T00:05:47.272Z,38.88
2023-02-22T00:08:16.706Z,36.88
2023-02-22T00:10:44.923Z,37.60
2023-02-22T00:13:14.537Z,35.17
2023-02-22T00:15:41.820Z,39.75
2023-02-22T00:18:17.603Z,35.72
2023-02-22T00:20:45.826Z,37.70
2023-02-22T00:23:19.010Z,34.20
2023-02-22T00:25:47.822Z,38.20
2023-02-22T00:28:17.043Z,39.97
2023-02-22T00:30:44.686Z,36.75
2023-02-22T00:33:13.911Z,34.83
2023-02-22T00:35:41.942Z,36.90
2023-02-22T00:38:09.219Z,42.15
2023-02-22T00:40:36.633Z,42.05
2023-02-22T00:43:06.142Z,38.97
2023-02-22T00:45:36.327Z,39.78
2023-02-22T00:48:05.799Z,38.55
2023-02-22T00:50:33.807Z,36.45
2023-02-22T00:53:03.770Z,41.08
2023-02-22T00:55:35.645Z,41.97
2023-02-22T00:58:04.375Z,39.15
2023-02-22T01:00:37.613Z,41.92
2023-02-22T01:03:06.890Z,42.35
2023-02-22T01:05:34.785Z,45.88
2023-02-22T01:08:02.997Z,47.75
2023-02-22T01:10:31.548Z,49.28
2023-02-22T01:13:00.583Z,41.97
2023-02-22T01:15:30.800Z,43.47
2023-02-22T01:17:59.952Z,44.05
2023-02-22T01:20:29.143Z,47.88
2023-02-22T01:22:58.732Z,46.58
2023-02-22T01:25:30.898Z,48.08
2023-02-22T01:28:00.511Z,51.55
2023-02-22T01:30:31.073Z,45.30
2023-02-22T01:32:58.764Z,45.65
2023-02-22T01:35:29.547Z,44.38
2023-02-22T01:37:58.446Z,51.88
2023-02-22T01:40:33.340Z,44.13
2023-02-22T01:43:05.164Z,49.95
2023-02-22T01:45:35.201Z,46.60
2023-02-22T01:48:04.718Z,50.15
2023-02-22T01:50:34.525Z,47.33
2023-02-22T01:53:02.781Z,52.42
2023-02-22T01:55:31.393Z,43.35
2023-02-22T01:57:58.835Z,47.05
2023-02-22T02:00:27.903Z,46.72
2023-02-22T02:03:02.194Z,45.45
2023-02-22T02:05:32.250Z,46.33
2023-02-22T02:08:05.917Z,45.83
2023-02-22T02:10:34.704Z,51.05
2023-02-22T02:13:04.068Z,48.90
2023-02-22T02:15:34.393Z,43.72
2023-02-22T02:18:10.945Z,46.10
2023-02-22T02:21:03.203Z,48.60
2023-02-22T02:23:30.438Z,45.10
2023-02-22T02:26:35.035Z,51.60
2023-02-22T02:29:36.406Z,45.63
2023-02-22T02:32:09.367Z,44.17
2023-02-22T02:35:15.326Z,47.85
2023-02-22T02:37:57.785Z,51.13
2023-02-22T02:40:29.436Z,50.33
2023-02-22T02:43:26.444Z,41.80
2023-02-22T02:46:01.525Z,45.95
2023-02-22T02:48:30.917Z,41.67
2023-02-22T02:51:01.236Z,52.70
2023-02-22T02:53:35.164Z,48.63
2023-02-22T02:56:02.567Z,48.50
2023-02-22T02:58:30.091Z,45.65
2023-02-22T03:01:01.305Z,51.72
2023-02-22T03:03:43.671Z,44.90
2023-02-22T03:06:30.196Z,50.10
2023-02-22T03:09:14.052Z,47.35
2023-02-22T03:11:53.747Z,50.78
2023-02-22T03:14:38.348Z,50.45
2023-02-22T03:17:32.110Z,49.58
2023-02-22T03:20:31.803Z,53.78
2023-02-22T03:23:24.894Z,53.78
2023-02-22T03:25:58.431Z,55.78
2023-02-22T03:28:28.016Z,58.88
2023-02-22T03:31:05.893Z,55.33
2023-02-22T03:33:56.492Z,58.25
2023-02-22T03:36:30.865Z,59.50
2023-02-22T03:39:01.229Z,51.53
2023-02-22T03:41:31.078Z,52.88
2023-02-22T03:44:07.216Z,53.70
2023-02-22T03:46:38.334Z,59.10
2023-02-22T03:49:12.853Z,53.85
2023-02-22T03:51:40.796Z,55.45
2023-02-22T03:54:16.356Z,52.90
2023-02-22T03:57:10.000Z,55.83
2023-02-22T03:59:37.731Z,57.08
2023-02-22T04:02:05.007Z,63.08
2023-02-22T04:04:32.409Z,58.60
2023-02-22T04:07:00.825Z,60.80
2023-02-22T04:09:28.335Z,57.33
2023-02-22T04:11:55.649Z,57.17
2023-02-22T04:14:23.897Z,63.60
2023-02-22T04:16:51.532Z,62.88
2023-02-22T04:19:19.172Z,60.60
2023-02-22T04:21:46.776Z,62.40
2023-02-22T04:24:14.945Z,66.10
2023-02-22T04:26:42.307Z,60.03
2023-02-22T04:29:09.751Z,62.17
2023-02-22T04:31:37.123Z,60.90
2023-02-22T04:34:04.806Z,62.72
2023-02-22T04:36:32.205Z,56.67
2023-02-22T04:39:00.653Z,61.47
2023-02-22T04:41:28.474Z,64.22
2023-02-22T04:43:55.766Z,53.00
2023-02-22T04:46:23.446Z,60.72
2023-02-22T04:48:50.784Z,60.70
2023-02-22T04:51:19.933Z,55.65
2023-02-22T04:53:47.410Z,55.83
2023-02-22T04:56:16.919Z,55.85
2023-02-22T04:58:44.356Z,57.42
2023-02-22T05:01:11.806Z,55.92
2023-02-22T05:03:39.262Z,55.78
2023-02-22T05:06:07.464Z,63.13
2023-02-22T05:08:35.011Z,54.33
2023-02-22T05:11:02.515Z,56.83
2023-02-22T05:13:30.016Z,59.60
2023-02-22T05:15:57.407Z,57.78
2023-02-22T05:18:24.700Z,59.92
2023-02-22T05:20:52.046Z,66.47
2023-02-22T05:23:19.309Z,56.63
2023-02-22T05:25:46.663Z,58.70
2023-02-22T05:28:15.237Z,58.30
2023-02-22T05:30:42.735Z,60.47
2023-02-22T05:33:10.909Z,55.75
2023-02-22T05:35:38.356Z,60.53
2023-02-22T05:38:06.213Z,63.00
2023-02-22T05:40:34.110Z,62.20
2023-02-22T05:43:03.022Z,61.63
2023-02-22T05:45:30.589Z,61.85
2023-02-22T05:47:58.321Z,60.25
2023-02-22T05:50:26.349Z,63.97
2023-02-22T05:52:54.843Z,56.63
2023-02-22T05:55:24.153Z,66.18
2023-02-22T05:57:52.438Z,63.85
2023-02-22T06:00:27.329Z,67.13
2023-02-22T06:03:03.599Z,57.65
2023-02-22T06:05:31.589Z,64.60
2023-02-22T06:07:59.447Z,68.03
2023-02-22T06:10:27.364Z,69.82
2023-02-22T06:12:55.141Z,67.40
2023-02-22T06:15:24.082Z,67.50
2023-02-22T06:17:52.493Z,69.10
2023-02-22T06:20:22.975Z,67.18
2023-02-22T06:22:51.813Z,64.95
2023-02-22T06:25:22.242Z,65.38
2023-02-22T06:27:49.854Z,70.03
2023-02-22T06:30:19.954Z,70.20
2023-02-22T06:32:47.475Z,69.20
2023-02-22T06:35:16.362Z,65.90
2023-02-22T06:37:43.724Z,74.03
2023-02-22T06:40:12.232Z,67.18
2023-02-22T06:42:39.942Z,76.15
2023-02-22T06:45:08.542Z,70.75
2023-02-22T06:47:41.863Z,75.00
2023-02-22T06:50:28.945Z,69.18
2023-02-22T06:52:57.348Z,75.00
2023-02-22T06:55:28.197Z,72.47
2023-02-22T06:57:55.887Z,77.88
2023-02-22T07:00:25.299Z,73.82
2023-02-22T07:02:56.449Z,74.40
2023-02-22T07:05:25.984Z,78.13
2023-02-22T07:07:56.472Z,70.07
2023-02-22T07:10:27.637Z,77.07
2023-02-22T07:12:55.604Z,79.45
2023-02-22T07:15:25.231Z,77.88
2023-02-22T07:17:52.875Z,78.10
2023-02-22T07:20:21.133Z,83.07
2023-02-22T07:22:50.799Z,83.70
2023-02-22T07:25:19.218Z,78.35
2023-02-22T07:27:46.805Z,83.75
2023-02-22T07:30:34.309Z,79.38
2023-02-22T07:33:04.859Z,74.95
2023-02-22T07:35:36.775Z,80.43
2023-02-22T07:38:06.239Z,72.28
2023-02-22T07:40:33.890Z,76.22
2023-02-22T07:43:05.923Z,74.80
2023-02-22T07:45:35.590Z,72.55
2023-02-22T07:48:05.217Z,70.18
2023-02-22T07:50:34.759Z,84.22
2023-02-22T07:53:07.795Z,72.38
2023-02-22T07:55:35.513Z,74.85
2023-02-22T07:58:06.236Z,85.85
2023-02-22T08:00:39.348Z,71.50
2023-02-22T08:03:12.593Z,73.45
2023-02-22T08:05:41.863Z,67.40
2023-02-22T08:08:09.525Z,73.80
2023-02-22T08:10:36.989Z,74.30
2023-02-22T08:13:05.237Z,72.28
2023-02-22T08:15:35.530Z,65.85
2023-02-22T08:18:04.663Z,77.25
2023-02-22T08:20:32.228Z,67.68
2023-02-22T08:22:59.514Z,70.93
2023-02-22T08:25:28.781Z,63.13
2023-02-22T08:28:01.488Z,64.15
2023-02-22T08:30:30.971Z,73.95
2023-02-22T08:32:59.686Z,67.38
2023-02-22T08:35:27.721Z,60.85
2023-02-22T08:38:02.693Z,64.47
2023-02-22T08:40:32.994Z,64.50
2023-02-22T08:43:01.798Z,61.22
2023-02-22T08:45:42.274Z,59.90
2023-02-22T08:48:09.628Z,65.00
2023-02-22T08:50:38.231Z,57.83
2023-02-22T08:53:06.080Z,54.70
2023-02-22T08:55:36.021Z,59.97
2023-02-22T08:58:05.996Z,59.42
2023-02-22T09:00:34.244Z,50.75
2023-02-22T09:03:02.770Z,47.63
2023-02-22T09:05:31.540Z,51.90
2023-02-22T09:07:59.917Z,46.78
2023-02-22T09:10:30.309Z,50.40
2023-02-22T09:13:00.956Z,50.25
2023-02-22T09:15:29.293Z,42.50
2023-02-22T09:17:56.835Z,47.58
2023-02-22T09:20:31.879Z,45.28
2023-02-22T09:23:00.407Z,43.47
2023-02-22T09:25:27.782Z,41.33
2023-02-22T09:27:56.936Z,40.97
2023-02-22T09:30:35.732Z,42.42
2023-02-22T09:33:19.684Z,39.13
2023-02-22T09:35:50.041Z,43.00
2023-02-22T09:38:22.763Z,34.60
2023-02-22T09:41:20.924Z,33.78
2023-02-22T09:44:27.810Z,39.20
2023-02-22T09:46:56.353Z,35.73
2023-02-22T09:49:33.724Z,34.17
2023-02-22T09:52:18.935Z,35.58
2023-02-22T09:54:54.679Z,30.15
2023-02-22T09:57:35.348Z,34.92
2023-02-22T10:00:16.177Z,38.33
2023-02-22T10:03:08.338Z,34.38
2023-02-22T10:05:42.920Z,33.30
2023-02-22T10:08:16.600Z,34.45
2023-02-22T10:10:46.091Z,36.95
2023-02-22T10:13:29.326Z,32.50
2023-02-22T10:16:02.739Z,32.63
2023-02-22T10:18:42.541Z,43.75
2023-02-22T10:21:29.789Z,33.28
2023-02-22T10:24:20.944Z,37.83
2023-02-22T10:26:48.609Z,40.97
2023-02-22T10:29:35.365Z,39.40
2023-02-22T10:32:05.159Z,40.55
2023-02-22T10:34:48.796Z,37.50
2023-02-22T10:37:29.256Z,40.88
2023-02-22T10:40:17.467Z,37.63
2023-02-22T10:42:45.243Z,39.92
2023-02-22T10:45:32.644Z,39.88
2023-02-22T10:48:26.284Z,35.83
2023-02-22T10:51:02.267Z,37.72
2023-02-22T10:53:31.106Z,34.28
2023-02-22T10:56:16.904Z,33.15
2023-02-22T10:59:02.412Z,35.63
2023-02-22T11:01:32.664Z,39.53
2023-02-22T11:04:16.233Z,35.17
2023-02-22T11:06:46.208Z,40.50
2023-02-22T11:09:24.843Z,42.03
2023-02-22T11:12:16.603Z,34.53
2023-02-22T11:14:43.910Z,32.15
2023-02-22T11:17:15.958Z,37.55
2023-02-22T11:19:49.400Z,37.88
2023-02-22T11:22:28.131Z,44.40
2023-02-22T11:25:02.491Z,34.95
2023-02-22T11:27:47.064Z,37.40
2023-02-22T11:30:32.982Z,35.78
2023-02-22T11:33:03.755Z,37.50
2023-02-22T11:35:32.905Z,43.35
2023-02-22T11:38:22.048Z,35.25
2023-02-22T11:41:14.798Z,36.55
2023-02-22T11:43:50.094Z,35.28
2023-02-22T11:46:22.558Z,34.08
2023-02-22T11:49:09.092Z,33.97
2023-02-22T11:51:45.535Z,39.67
2023-02-22T11:57:28.832Z,31.98
2023-02-22T12:00:33.554Z,29.13
2023-02-22T12:03:22.972Z,30.98
2023-02-22T12:06:02.419Z,29.10
2023-02-22T12:08:54.988Z,33.03
2023-02-22T12:11:55.025Z,34.50
2023-02-22T12:14:42.009Z,36.17
2023-02-22T12:19:52.301Z,31.77
2023-02-22T12:22:26.072Z,34.92
2023-02-22T12:25:21.595Z,27.52
2023-02-22T12:27:59.306Z,28.10
2023-02-22T12:30:39.474Z,31.83
2023-02-22T12:33:14.714Z,29.27
2023-02-22T12:35:54.754Z,26.15
2023-02-22T12:38:33.835Z,27.92
2023-02-22T12:41:24.821Z,27.80
2023-02-22T12:44:37.228Z,30.30
2023-02-22T12:47:14.120Z,28.13
2023-02-22T12:49:49.717Z,32.67
2023-02-22T12:52:28.734Z,27.47
2023-02-22T12:55:02.158Z,32.17
2023-02-22T12:58:08.305Z,35.60
2023-02-22T13:00:45.001Z,29.00
2023-02-22T13:03:15.644Z,31.73
2023-02-22T13:05:54.486Z,32.72
2023-02-22T13:08:34.161Z,32.05
2023-02-22T13:11:04.336Z,34.78
2023-02-22T13:13:54.725Z,41.67
2023-02-22T13:16:25.094Z,32.55
2023-02-22T13:18:55.469Z,37.63
2023-02-22T13:21:25.796Z,37.65
2023-02-22T13:24:18.386Z,33.55
2023-02-22T13:27:11.879Z,32.70
2023-02-22T13:29:55.529Z,34.15
2023-02-22T13:32:56.660Z,35.92
2023-02-22T13:35:45.202Z,37.38
2023-02-22T13:38:39.184Z,33.72
2023-02-22T13:41:12.376Z,32.88
2023-02-22T13:44:00.587Z,31.70
2023-02-22T13:46:53.488Z,32.67
2023-02-22T13:49:45.450Z,31.63
2023-02-22T13:52:18.626Z,31.60
2023-02-22T13:54:54.684Z,32.45
2023-02-22T13:57:49.883Z,32.20
2023-02-22T14:00:21.222Z,31.35
2023-02-22T14:03:08.545Z,27.45
2023-02-22T14:05:42.547Z,33.83
2023-02-22T14:08:19.166Z,29.55
2023-02-22T14:10:56.950Z,30.52
2023-02-22T14:13:29.216Z,31.80
2023-02-22T14:16:05.264Z,26.35
2023-02-22T14:18:41.227Z,27.08
2023-02-22T14:21:17.263Z,25.73
2023-02-22T14:23:45.625Z,27.48
2023-02-22T14:26:30.025Z,27.02
2023-02-22T14:29:02.813Z,20.65
2023-02-22T14:31:36.851Z,21.55
2023-02-22T14:34:07.138Z,22.50
2023-02-22T14:37:14.233Z,20.80
2023-02-22T14:39:51.151Z,22.13
2023-02-22T14:42:21.296Z,24.83
2023-02-22T14:44:48.935Z,24.15
2023-02-22T14:47:32.091Z,23.73
2023-02-22T14:50:25.258Z,22.42
2023-02-22T14:53:13.809Z,23.75
2023-02-22T14:55:50.951Z,24.88
2023-02-22T14:58:36.400Z,31.20
2023-02-22T15:09:53.342Z,22.20
2023-02-22T15:23:00.791Z,19.95
2023-02-22T15:25:39.369Z,20.70
2023-02-22T15:28:09.558Z,21.45
2023-02-22T15:30:37.823Z,24.02
2023-02-22T15:33:25.009Z,19.52
2023-02-22T15:35:57.230Z,18.85
2023-02-22T15:38:30.556Z,17.05
2023-02-22T15:41:08.501Z,22.65
2023-02-22T15:43:38.466Z,20.38
2023-02-22T15:46:06.882Z,17.08
2023-02-22T15:48:37.289Z,17.20
2023-02-22T15:51:12.812Z,17.48
2023-02-22T15:53:47.253Z,18.30
2023-02-22T15:56:24.189Z,21.23
2023-02-22T15:58:58.867Z,21.88
2023-02-22T16:01:27.266Z,24.58
2023-02-22T16:03:58.905Z,22.35
2023-02-22T16:06:41.997Z,29.23
2023-02-22T16:09:30.290Z,24.38
2023-02-22T16:12:21.155Z,26.75
2023-02-22T16:14:49.107Z,24.10
2023-02-22T16:17:28.860Z,24.08
2023-02-22T16:20:01.152Z,25.90
2023-02-22T16:22:36.207Z,22.50
2023-02-22T16:25:20.809Z,25.55
2023-02-22T16:27:52.780Z,21.60
2023-02-22T16:30:29.787Z,21.80
2023-02-22T16:32:57.960Z,24.70
2023-02-22T16:35:28.924Z,22.00
2023-02-22T16:38:06.825Z,24.13
2023-02-22T16:44:46.061Z,15.05
2023-02-22T16:47:22.077Z,16.70
2023-02-22T16:49:55.509Z,21.23
2023-02-22T16:52:22.838Z,20.85
2023-02-22T16:54:52.010Z,14.68
2023-02-22T16:57:22.732Z,16.95
2023-02-22T16:59:52.893Z,12.38
2023-02-22T17:06:37.274Z,12.55
2023-02-22T17:09:34.078Z,9.40
2023-02-22T17:12:05.256Z,8.40
2023-02-22T17:14:35.677Z,11.80
2023-02-22T17:17:40.459Z,8.55
2023-02-22T17:20:30.474Z,7.47
2023-02-22T17:22:59.608Z,11.20
2023-02-22T17:26:27.338Z,11.90
2023-02-22T17:29:10.557Z,11.20
2023-02-22T17:32:03.438Z,11.70
2023-02-22T17:35:27.124Z,9.85
2023-02-22T17:37:54.585Z,16.92
2023-02-22T17:40:24.336Z,21.38
2023-02-22T17:44:19.173Z,46.53
2023-02-22T17:46:46.636Z,65.07
2023-02-22T17:49:14.117Z,25.35
2023-02-22T17:51:41.562Z,11.38
2023-02-22T17:54:10.428Z,9.88
2023-02-22T17:56:39.402Z,8.70
2023-02-22T17:59:09.160Z,18.55
2023-02-22T18:01:36.904Z,12.13
2023-02-22T18:04:05.209Z,9.43
2023-02-22T18:06:33.025Z,13.65
2023-02-22T18:09:01.066Z,10.60
2023-02-22T18:11:32.772Z,12.80
2023-02-22T18:14:00.229Z,10.75
2023-02-22T18:16:27.818Z,9.25
2023-02-22T18:18:56.214Z,11.48
2023-02-22T18:21:26.800Z,10.95
2023-02-22T18:23:55.057Z,10.88
2023-02-22T18:26:24.531Z,8.40
2023-02-22T18:28:53.772Z,13.43
2023-02-22T18:31:22.901Z,10.93
2023-02-22T18:33:52.080Z,11.63
2023-02-22T18:36:23.314Z,10.95
2023-02-22T18:38:53.424Z,9.50
2023-02-22T18:41:26.813Z,14.02
2023-02-22T18:44:00.492Z,9.38
2023-02-22T18:46:29.978Z,12.32
2023-02-22T18:48:58.263Z,14.15
2023-02-22T19:02:07.984Z,9.05
2023-02-22T19:17:35.434Z,14.25
2023-02-22T19:20:56.544Z,15.20
2023-02-22T19:32:08.131Z,10.57
2023-02-22T19:42:42.377Z,19.08
2023-02-22T20:39:14.148Z,14.75
2023-02-22T20:58:41.747Z,11.45
2023-02-22T21:01:14.120Z,11.60
2023-02-22T21:03:44.993Z,13.48
2023-02-22T21:06:17.523Z,12.00
2023-02-22T21:08:50.497Z,15.07
2023-02-22T21:11:19.035Z,12.52
2023-02-22T21:13:48.832Z,12.55
2023-02-22T21:16:27.983Z,13.18
2023-02-22T21:18:58.820Z,20.33
2023-02-22T21:21:27.541Z,12.23
2023-02-22T21:23:57.185Z,17.77
2023-02-22T21:26:49.822Z,14.60
2023-02-22T21:29:19.759Z,15.32
2023-02-22T21:31:50.948Z,10.70
2023-02-22T21:34:18.562Z,13.85
2023-02-22T21:36:46.422Z,17.85
2023-02-22T21:39:28.553Z,12.75
2023-02-22T21:42:01.056Z,12.43
2023-02-22T21:44:28.849Z,16.73
2023-02-22T21:46:56.323Z,15.45
2023-02-22T21:49:23.770Z,11.35
2023-02-22T21:51:52.542Z,12.10
2023-02-22T21:54:20.223Z,12.40
2023-02-22T21:56:48.011Z,17.45
2023-02-22T21:59:20.975Z,15.82
2023-02-22T22:01:50.522Z,12.88
2023-02-22T22:04:21.511Z,13.57
2023-02-22T22:06:51.591Z,14.98
2023-02-22T22:09:20.566Z,19.45
2023-02-22T22:11:53.618Z,22.73
2023-02-22T22:14:25.426Z,19.33
2023-02-22T22:16:56.036Z,29.65
2023-02-22T22:19:23.665Z,19.13
2023-02-22T22:21:53.895Z,18.88
2023-02-22T22:24:22.741Z,23.38
2023-02-22T22:26:54.590Z,21.63
2023-02-22T22:29:28.590Z,19.80
2023-02-22T22:31:56.676Z,19.80
2023-02-22T22:34:24.401Z,22.40
2023-02-22T22:36:51.907Z,18.85
2023-02-22T22:39:20.978Z,22.30
2023-02-22T22:41:48.925Z,18.42
2023-02-22T22:44:22.178Z,29.35
2023-02-22T22:46:53.502Z,19.85
2023-02-22T22:49:23.560Z,18.60
2023-02-22T22:51:51.400Z,23.77
2023-02-22T22:54:18.762Z,20.00
2023-02-22T22:56:46.548Z,24.83
2023-02-22T22:59:13.999Z,18.60
2023-02-22T23:01:44.722Z,16.70
2023-02-22T23:04:16.475Z,24.42
2023-02-22T23:06:47.981Z,20.58
2023-02-22T23:09:19.041Z,16.77
2023-02-22T23:11:50.973Z,17.00
2023-02-22T23:14:21.980Z,18.27
2023-02-22T23:16:50.824Z,19.48
2023-02-22T23:19:21.738Z,25.25
2023-02-22T23:21:50.055Z,19.92
2023-02-22T23:24:19.995Z,14.60
2023-02-22T23:26:50.821Z,15.23
2023-02-22T23:29:20.613Z,22.65
2023-02-22T23:31:49.610Z,18.45
2023-02-22T23:34:21.194Z,21.52
2023-02-22T23:36:50.452Z,15.27
2023-02-22T23:39:22.080Z,20.25
2023-02-22T23:41:54.498Z,16.88
2023-02-22T23:44:22.494Z,15.93
2023-02-22T23:46:55.414Z,15.68
2023-02-22T23:49:26.404Z,17.30
2023-02-22T23:51:53.816Z,18.50
2023-02-22T23:54:24.521Z,17.23
2023-02-22T23:56:58.644Z,23.40
2023-02-22T23:59:27.009Z,18.40
